SKBOSKMD

Guest
Details From SKBO - Bogota - El Dorado Intl
To SKMD - Medellin Olaya Herrera
Flight Number -
Tags generated
Created
Modified
Stats Distance 126 nm / 233 km
Max Altitude 9,000 ft / 2,743 m
Waypoints 3
Social Downloads 24
Likes 0
Share VATSIM

Download

Looking for another format? Having issues loading an existing format? Contact us
Advertisement - Login to hide

Notes

Basic altitude profile: - Ascent Rate: 2500ft/min - Ascent Speed: 250kts - Cruise Altitude: 35000ft - Cruise Speed: 420kts - Descent Rate: 1500ft/min - Descent Speed: 250kts Options: - Use NATs: yes - Use PACOTS: yes - Use low airways: yes - Use high airways: yes

Route

SKBO BARZA SKMD

ID Type Via Altitude Latitude Longitude Leg Dist Tot Dist Heading (true) Name
O SKBO APT - 0 ft / 0 m 4.70159˚ -74.14695˚ - 0 nm - Bogota - El Dorado Intl
BARZA FIX - 9,000 ft / 2,743 m 5.69472˚ -75.12500˚ 83 nm 83 nm 316° / 316° -
O SKMD APT - 0 ft / 0 m 6.21996˚ -75.59052˚ 42 nm 125 nm 319° / 319° Medellin Olaya Herrera

Altitude Profile

Advertisement - Login to hide

SKBO

Details ICAO SKBO (BOG)
Name Bogota - El Dorado Intl
Region Colombia
Timezone America/Bogota (UTC-5.0)
Stats Elevation 8,361 ft / 2,548 m (AMSL)
Location 4.701594° -74.146946°
Runways 2
Magnetic Variation 7.266° W

METAR

SKBO 131700Z 29006KT 9999 BKN020 18/09 A3033

Decode

TAF

TAF SKBO 130500Z 130606 29004KT 9999 SCT020 SCT090 BECMG 1317/1319 30012KT PROB40 TEMPO 1321/1323 8000 DZRA FEW017CB BKN080 BECMG 1401/1403 VRB02KT FEW020 TX20/1318Z TN09/1311Z

Decode

Departure Runways

ID Width Length Bearing (true) Bearing (mag) Surface Threshold Offset Overrun Length
13L 148 ft / 45 m 12,482 ft / 3,804 m 127.21° 134.48° Asphalt 0 ft / 0 m 0 ft / 0 m
13R 148 ft / 45 m 12,494 ft / 3,808 m 127.23° 134.50° Asphalt 0 ft / 0 m 200 ft / 61 m
31L 148 ft / 45 m 12,494 ft / 3,808 m 307.23° 314.50° Asphalt 0 ft / 0 m 190 ft / 58 m
31R 148 ft / 45 m 12,482 ft / 3,804 m 307.21° 314.48° Asphalt 0 ft / 0 m 0 ft / 0 m

SKMD

Details ICAO SKMD (EOH)
Name Medellin Olaya Herrera
Region Colombia
Timezone America/Bogota (UTC-5.0)
Stats Elevation 4,940 ft / 1,506 m (AMSL)
Location 6.219958° -75.590519°
Runways 1
Magnetic Variation 6.528° W

METAR

SKMD 131700Z 00000KT 9999 SCT025 25/16 A3016

Decode

TAF

Not found

Destination Runways

ID Width Length Bearing (true) Bearing (mag) Surface Threshold Offset Overrun Length
02 148 ft / 45 m 8,324 ft / 2,537 m 10.66° 17.19° Asphalt 1,316 ft / 401 m 0 ft / 0 m
20 148 ft / 45 m 8,324 ft / 2,537 m 190.66° 197.19° Asphalt 1,012 ft / 308 m 0 ft / 0 m

Popular Alternatives